sensor_id;sensor_type;location;lat;lon;timestamp;P1;durP1;ratioP1;P2;durP2;ratioP2
33206;SDS011;19565;46.602;11.534;2023-04-27T00:00:07;18.93;;;18.03;;
33206;SDS011;19565;46.602;11.534;2023-04-27T00:02:37;18.67;;;17.77;;
33206;SDS011;19565;46.602;11.534;2023-04-27T00:05:05;20.13;;;18.30;;
33206;SDS011;19565;46.602;11.534;2023-04-27T00:07:34;19.17;;;18.27;;
33206;SDS011;19565;46.602;11.534;2023-04-27T00:10:02;18.60;;;17.70;;
33206;SDS011;19565;46.602;11.534;2023-04-27T00:12:30;19.43;;;18.53;;
33206;SDS011;19565;46.602;11.534;2023-04-27T00:15:00;19.43;;;18.53;;
33206;SDS011;19565;46.602;11.534;2023-04-27T00:17:28;19.57;;;18.67;;
33206;SDS011;19565;46.602;11.534;2023-04-27T00:19:56;19.50;;;18.50;;
33206;SDS011;19565;46.602;11.534;2023-04-27T00:22:25;19.33;;;18.43;;
33206;SDS011;19565;46.602;11.534;2023-04-27T00:24:53;19.43;;;18.53;;
33206;SDS011;19565;46.602;11.534;2023-04-27T00:27:21;19.50;;;18.40;;
33206;SDS011;19565;46.602;11.534;2023-04-27T00:29:49;18.60;;;17.70;;
33206;SDS011;19565;46.602;11.534;2023-04-27T00:32:19;18.60;;;17.70;;
33206;SDS011;19565;46.602;11.534;2023-04-27T00:34:47;18.77;;;17.87;;
33206;SDS011;19565;46.602;11.534;2023-04-27T00:37:15;19.13;;;18.10;;
33206;SDS011;19565;46.602;11.534;2023-04-27T00:39:43;18.00;;;17.10;;
33206;SDS011;19565;46.602;11.534;2023-04-27T00:42:12;18.83;;;17.93;;
33206;SDS011;19565;46.602;11.534;2023-04-27T00:44:42;18.27;;;17.37;;
33206;SDS011;19565;46.602;11.534;2023-04-27T00:47:10;17.93;;;17.03;;
33206;SDS011;19565;46.602;11.534;2023-04-27T00:49:39;18.43;;;17.53;;
33206;SDS011;19565;46.602;11.534;2023-04-27T00:52:08;17.90;;;17.00;;
33206;SDS011;19565;46.602;11.534;2023-04-27T00:54:37;17.87;;;17.03;;
33206;SDS011;19565;46.602;11.534;2023-04-27T00:57:07;18.47;;;17.47;;
33206;SDS011;19565;46.602;11.534;2023-04-27T00:59:35;18.60;;;17.70;;
33206;SDS011;19565;46.602;11.534;2023-04-27T01:02:03;18.13;;;17.23;;
33206;SDS011;19565;46.602;11.534;2023-04-27T01:04:31;17.53;;;16.63;;
33206;SDS011;19565;46.602;11.534;2023-04-27T01:07:01;17.73;;;16.90;;
33206;SDS011;19565;46.602;11.534;2023-04-27T01:09:29;17.67;;;16.80;;
33206;SDS011;19565;46.602;11.534;2023-04-27T01:11:57;18.40;;;17.50;;
33206;SDS011;19565;46.602;11.534;2023-04-27T01:14:25;18.80;;;17.90;;
33206;SDS011;19565;46.602;11.534;2023-04-27T01:16:55;18.60;;;17.70;;
33206;SDS011;19565;46.602;11.534;2023-04-27T01:19:23;17.63;;;16.83;;
33206;SDS011;19565;46.602;11.534;2023-04-27T01:21:51;18.20;;;17.30;;
33206;SDS011;19565;46.602;11.534;2023-04-27T01:24:21;18.33;;;17.43;;
33206;SDS011;19565;46.602;11.534;2023-04-27T01:26:49;18.50;;;17.60;;
33206;SDS011;19565;46.602;11.534;2023-04-27T01:29:19;18.80;;;17.80;;
33206;SDS011;19565;46.602;11.534;2023-04-27T01:31:47;18.53;;;17.63;;
33206;SDS011;19565;46.602;11.534;2023-04-27T01:34:15;19.07;;;18.03;;
33206;SDS011;19565;46.602;11.534;2023-04-27T01:36:43;19.90;;;18.37;;
33206;SDS011;19565;46.602;11.534;2023-04-27T01:39:11;18.70;;;17.80;;
33206;SDS011;19565;46.602;11.534;2023-04-27T01:41:41;18.87;;;17.87;;
33206;SDS011;19565;46.602;11.534;2023-04-27T01:44:09;19.00;;;18.10;;
33206;SDS011;19565;46.602;11.534;2023-04-27T01:46:37;19.00;;;18.00;;
33206;SDS011;19565;46.602;11.534;2023-04-27T01:49:06;17.67;;;16.83;;
33206;SDS011;19565;46.602;11.534;2023-04-27T01:51:34;17.50;;;16.70;;
33206;SDS011;19565;46.602;11.534;2023-04-27T01:54:02;17.33;;;16.53;;
33206;SDS011;19565;46.602;11.534;2023-04-27T01:56:31;18.00;;;17.10;;
33206;SDS011;19565;46.602;11.534;2023-04-27T01:59:01;18.03;;;17.13;;
33206;SDS011;19565;46.602;11.534;2023-04-27T02:01:30;17.60;;;16.80;;
33206;SDS011;19565;46.602;11.534;2023-04-27T02:03:58;17.50;;;16.50;;
33206;SDS011;19565;46.602;11.534;2023-04-27T02:06:26;17.33;;;16.53;;
33206;SDS011;19565;46.602;11.534;2023-04-27T02:08:54;17.63;;;16.83;;
33206;SDS011;19565;46.602;11.534;2023-04-27T02:11:22;17.60;;;16.80;;
33206;SDS011;19565;46.602;11.534;2023-04-27T02:13:51;17.43;;;16.53;;
33206;SDS011;19565;46.602;11.534;2023-04-27T02:16:21;17.50;;;16.70;;
33206;SDS011;19565;46.602;11.534;2023-04-27T02:18:49;17.43;;;16.53;;
33206;SDS011;19565;46.602;11.534;2023-04-27T02:21:19;18.10;;;17.20;;
33206;SDS011;19565;46.602;11.534;2023-04-27T02:23:48;18.17;;;17.27;;
33206;SDS011;19565;46.602;11.534;2023-04-27T02:26:16;18.43;;;17.50;;
33206;SDS011;19565;46.602;11.534;2023-04-27T02:28:44;17.30;;;16.50;;
33206;SDS011;19565;46.602;11.534;2023-04-27T02:31:13;16.73;;;15.93;;
33206;SDS011;19565;46.602;11.534;2023-04-27T02:33:43;17.13;;;16.27;;
33206;SDS011;19565;46.602;11.534;2023-04-27T02:36:11;15.90;;;15.10;;
33206;SDS011;19565;46.602;11.534;2023-04-27T02:38:39;15.97;;;15.17;;
33206;SDS011;19565;46.602;11.534;2023-04-27T02:41:07;16.70;;;15.90;;
33206;SDS011;19565;46.602;11.534;2023-04-27T02:43:35;16.20;;;15.40;;
33206;SDS011;19565;46.602;11.534;2023-04-27T02:46:03;16.40;;;15.60;;
33206;SDS011;19565;46.602;11.534;2023-04-27T02:48:31;15.40;;;14.60;;
33206;SDS011;19565;46.602;11.534;2023-04-27T02:51:03;15.80;;;15.00;;
33206;SDS011;19565;46.602;11.534;2023-04-27T02:53:31;15.90;;;15.10;;
33206;SDS011;19565;46.602;11.534;2023-04-27T02:55:59;16.50;;;15.60;;
33206;SDS011;19565;46.602;11.534;2023-04-27T02:58:29;16.70;;;15.90;;
33206;SDS011;19565;46.602;11.534;2023-04-27T03:00:57;16.80;;;16.00;;
33206;SDS011;19565;46.602;11.534;2023-04-27T03:03:27;15.30;;;14.50;;
33206;SDS011;19565;46.602;11.534;2023-04-27T03:05:56;15.37;;;14.57;;
33206;SDS011;19565;46.602;11.534;2023-04-27T03:08:25;15.50;;;14.70;;
33206;SDS011;19565;46.602;11.534;2023-04-27T03:10:53;15.97;;;15.17;;
33206;SDS011;19565;46.602;11.534;2023-04-27T03:13:21;17.40;;;16.60;;
33206;SDS011;19565;46.602;11.534;2023-04-27T03:15:49;16.20;;;15.40;;
33206;SDS011;19565;46.602;11.534;2023-04-27T03:18:17;15.43;;;14.63;;
33206;SDS011;19565;46.602;11.534;2023-04-27T03:20:45;16.20;;;15.37;;
33206;SDS011;19565;46.602;11.534;2023-04-27T03:23:13;15.63;;;14.83;;
33206;SDS011;19565;46.602;11.534;2023-04-27T03:25:42;15.13;;;14.43;;
33206;SDS011;19565;46.602;11.534;2023-04-27T03:28:10;15.60;;;14.80;;
33206;SDS011;19565;46.602;11.534;2023-04-27T03:30:39;15.00;;;14.30;;
33206;SDS011;19565;46.602;11.534;2023-04-27T03:33:07;15.43;;;14.63;;
33206;SDS011;19565;46.602;11.534;2023-04-27T03:35:35;15.33;;;14.53;;
33206;SDS011;19565;46.602;11.534;2023-04-27T03:38:03;15.70;;;14.90;;
33206;SDS011;19565;46.602;11.534;2023-04-27T03:40:31;15.20;;;14.50;;
33206;SDS011;19565;46.602;11.534;2023-04-27T03:43:01;15.90;;;15.10;;
33206;SDS011;19565;46.602;11.534;2023-04-27T03:45:29;16.23;;;15.43;;
33206;SDS011;19565;46.602;11.534;2023-04-27T03:47:57;15.43;;;14.63;;
33206;SDS011;19565;46.602;11.534;2023-04-27T03:50:25;16.00;;;15.20;;
33206;SDS011;19565;46.602;11.534;2023-04-27T03:52:55;15.70;;;14.80;;
33206;SDS011;19565;46.602;11.534;2023-04-27T03:55:23;15.90;;;15.10;;
33206;SDS011;19565;46.602;11.534;2023-04-27T03:57:52;16.83;;;16.03;;
33206;SDS011;19565;46.602;11.534;2023-04-27T04:00:21;16.97;;;16.17;;
33206;SDS011;19565;46.602;11.534;2023-04-27T04:02:50;14.97;;;14.27;;
33206;SDS011;19565;46.602;11.534;2023-04-27T04:05:19;15.30;;;14.50;;
33206;SDS011;19565;46.602;11.534;2023-04-27T04:07:47;14.10;;;13.40;;
33206;SDS011;19565;46.602;11.534;2023-04-27T04:10:15;14.20;;;13.50;;
33206;SDS011;19565;46.602;11.534;2023-04-27T04:12:43;14.63;;;13.93;;
33206;SDS011;19565;46.602;11.534;2023-04-27T04:15:11;23.17;;;22.13;;
33206;SDS011;19565;46.602;11.534;2023-04-27T04:17:40;15.20;;;14.40;;
33206;SDS011;19565;46.602;11.534;2023-04-27T04:20:09;15.97;;;15.17;;
33206;SDS011;19565;46.602;11.534;2023-04-27T04:22:38;17.83;;;16.87;;
33206;SDS011;19565;46.602;11.534;2023-04-27T04:25:06;16.93;;;16.13;;
33206;SDS011;19565;46.602;11.534;2023-04-27T04:27:34;17.87;;;16.97;;
33206;SDS011;19565;46.602;11.534;2023-04-27T04:30:03;18.23;;;17.33;;
33206;SDS011;19565;46.602;11.534;2023-04-27T04:32:32;16.73;;;15.93;;
33206;SDS011;19565;46.602;11.534;2023-04-27T04:35:04;34.93;;;33.43;;
33206;SDS011;19565;46.602;11.534;2023-04-27T04:37:33;36.93;;;35.33;;
33206;SDS011;19565;46.602;11.534;2023-04-27T04:40:05;36.00;;;34.40;;
33206;SDS011;19565;46.602;11.534;2023-04-27T04:42:36;35.63;;;34.13;;
33206;SDS011;19565;46.602;11.534;2023-04-27T04:45:04;36.87;;;35.07;;
33206;SDS011;19565;46.602;11.534;2023-04-27T04:47:33;36.00;;;34.50;;
33206;SDS011;19565;46.602;11.534;2023-04-27T04:50:02;35.40;;;33.80;;
33206;SDS011;19565;46.602;11.534;2023-04-27T04:52:32;15.97;;;15.13;;
33206;SDS011;19565;46.602;11.534;2023-04-27T04:55:00;16.03;;;15.10;;
33206;SDS011;19565;46.602;11.534;2023-04-27T04:57:28;17.07;;;16.23;;
33206;SDS011;19565;46.602;11.534;2023-04-27T04:59:56;16.80;;;16.00;;
33206;SDS011;19565;46.602;11.534;2023-04-27T05:02:24;22.93;;;21.83;;
33206;SDS011;19565;46.602;11.534;2023-04-27T05:04:53;16.97;;;16.10;;
33206;SDS011;19565;46.602;11.534;2023-04-27T05:07:22;16.80;;;16.00;;
33206;SDS011;19565;46.602;11.534;2023-04-27T05:09:51;19.17;;;17.77;;
33206;SDS011;19565;46.602;11.534;2023-04-27T05:12:19;19.33;;;18.40;;
33206;SDS011;19565;46.602;11.534;2023-04-27T05:14:48;21.40;;;20.23;;
33206;SDS011;19565;46.602;11.534;2023-04-27T05:17:17;21.20;;;20.20;;
33206;SDS011;19565;46.602;11.534;2023-04-27T05:19:45;34.60;;;33.00;;
33206;SDS011;19565;46.602;11.534;2023-04-27T05:22:13;35.33;;;33.83;;
33206;SDS011;19565;46.602;11.534;2023-04-27T05:24:41;40.43;;;38.73;;
33206;SDS011;19565;46.602;11.534;2023-04-27T05:27:11;44.90;;;43.10;;
33206;SDS011;19565;46.602;11.534;2023-04-27T05:29:39;38.00;;;36.50;;
33206;SDS011;19565;46.602;11.534;2023-04-27T05:32:07;34.10;;;32.70;;
33206;SDS011;19565;46.602;11.534;2023-04-27T05:34:35;40.30;;;38.70;;
33206;SDS011;19565;46.602;11.534;2023-04-27T05:37:03;48.77;;;46.67;;
33206;SDS011;19565;46.602;11.534;2023-04-27T05:39:32;39.97;;;38.37;;
33206;SDS011;19565;46.602;11.534;2023-04-27T05:42:00;32.00;;;30.60;;
33206;SDS011;19565;46.602;11.534;2023-04-27T05:44:30;26.00;;;24.90;;
33206;SDS011;19565;46.602;11.534;2023-04-27T05:46:58;26.53;;;25.33;;
33206;SDS011;19565;46.602;11.534;2023-04-27T05:49:26;29.43;;;27.93;;
33206;SDS011;19565;46.602;11.534;2023-04-27T05:51:54;27.00;;;25.70;;
33206;SDS011;19565;46.602;11.534;2023-04-27T05:54:24;28.27;;;26.50;;
33206;SDS011;19565;46.602;11.534;2023-04-27T05:56:52;26.63;;;25.43;;
33206;SDS011;19565;46.602;11.534;2023-04-27T05:59:20;25.53;;;24.43;;
33206;SDS011;19565;46.602;11.534;2023-04-27T06:01:50;25.30;;;24.20;;
33206;SDS011;19565;46.602;11.534;2023-04-27T06:04:18;25.27;;;24.07;;
33206;SDS011;19565;46.602;11.534;2023-04-27T06:06:46;25.00;;;23.80;;
33206;SDS011;19565;46.602;11.534;2023-04-27T06:09:14;24.60;;;23.50;;
33206;SDS011;19565;46.602;11.534;2023-04-27T06:11:42;30.07;;;28.77;;
33206;SDS011;19565;46.602;11.534;2023-04-27T06:14:12;27.87;;;26.57;;
33206;SDS011;19565;46.602;11.534;2023-04-27T06:16:40;28.23;;;27.03;;
33206;SDS011;19565;46.602;11.534;2023-04-27T06:19:09;25.07;;;23.97;;
33206;SDS011;19565;46.602;11.534;2023-04-27T06:21:38;24.47;;;23.37;;
33206;SDS011;19565;46.602;11.534;2023-04-27T06:24:06;23.57;;;22.47;;
33206;SDS011;19565;46.602;11.534;2023-04-27T06:26:34;24.63;;;23.43;;
33206;SDS011;19565;46.602;11.534;2023-04-27T06:29:02;27.70;;;26.30;;
33206;SDS011;19565;46.602;11.534;2023-04-27T06:31:32;26.60;;;25.33;;
33206;SDS011;19565;46.602;11.534;2023-04-27T06:34:01;26.50;;;25.30;;
33206;SDS011;19565;46.602;11.534;2023-04-27T06:36:31;27.53;;;26.03;;
33206;SDS011;19565;46.602;11.534;2023-04-27T06:38:59;27.30;;;26.10;;
33206;SDS011;19565;46.602;11.534;2023-04-27T06:41:27;28.47;;;27.27;;
33206;SDS011;19565;46.602;11.534;2023-04-27T06:43:55;26.97;;;25.57;;
33206;SDS011;19565;46.602;11.534;2023-04-27T06:46:24;26.20;;;25.00;;
33206;SDS011;19565;46.602;11.534;2023-04-27T06:48:52;25.73;;;24.53;;
33206;SDS011;19565;46.602;11.534;2023-04-27T06:51:20;26.60;;;25.30;;
33206;SDS011;19565;46.602;11.534;2023-04-27T06:53:50;27.02;;;25.83;;
33206;SDS011;19565;46.602;11.534;2023-04-27T06:56:20;38.67;;;36.93;;
33206;SDS011;19565;46.602;11.534;2023-04-27T06:58:48;29.55;;;28.25;;
33206;SDS011;19565;46.602;11.534;2023-04-27T07:01:16;28.50;;;27.27;;
33206;SDS011;19565;46.602;11.534;2023-04-27T07:03:44;30.75;;;29.45;;
33206;SDS011;19565;46.602;11.534;2023-04-27T07:06:12;25.75;;;24.65;;
33206;SDS011;19565;46.602;11.534;2023-04-27T07:08:40;30.93;;;29.57;;
33206;SDS011;19565;46.602;11.534;2023-04-27T07:11:10;23.27;;;22.17;;
33206;SDS011;19565;46.602;11.534;2023-04-27T07:13:38;21.27;;;20.27;;
33206;SDS011;19565;46.602;11.534;2023-04-27T07:16:07;23.40;;;22.30;;
33206;SDS011;19565;46.602;11.534;2023-04-27T07:18:35;28.70;;;27.47;;
33206;SDS011;19565;46.602;11.534;2023-04-27T07:21:03;24.67;;;23.48;;
33206;SDS011;19565;46.602;11.534;2023-04-27T07:23:31;26.52;;;25.35;;
33206;SDS011;19565;46.602;11.534;2023-04-27T07:25:59;24.23;;;23.13;;
33206;SDS011;19565;46.602;11.534;2023-04-27T07:28:29;30.10;;;28.77;;
33206;SDS011;19565;46.602;11.534;2023-04-27T07:30:57;29.07;;;27.77;;
33206;SDS011;19565;46.602;11.534;2023-04-27T07:33:25;20.63;;;19.73;;
33206;SDS011;19565;46.602;11.534;2023-04-27T07:35:54;22.40;;;21.40;;
33206;SDS011;19565;46.602;11.534;2023-04-27T07:38:22;22.33;;;21.33;;
33206;SDS011;19565;46.602;11.534;2023-04-27T07:40:50;23.75;;;22.23;;
33206;SDS011;19565;46.602;11.534;2023-04-27T07:43:19;23.33;;;22.33;;
33206;SDS011;19565;46.602;11.534;2023-04-27T07:45:50;26.77;;;25.58;;
33206;SDS011;19565;46.602;11.534;2023-04-27T07:48:19;27.08;;;25.88;;
33206;SDS011;19565;46.602;11.534;2023-04-27T07:50:48;27.67;;;26.48;;
33206;SDS011;19565;46.602;11.534;2023-04-27T07:53:16;28.67;;;27.48;;
33206;SDS011;19565;46.602;11.534;2023-04-27T07:55:44;32.45;;;31.10;;
33206;SDS011;19565;46.602;11.534;2023-04-27T07:58:12;30.23;;;28.92;;
33206;SDS011;19565;46.602;11.534;2023-04-27T08:00:40;26.42;;;25.20;;
33206;SDS011;19565;46.602;11.534;2023-04-27T08:03:09;41.75;;;40.05;;
33206;SDS011;19565;46.602;11.534;2023-04-27T08:05:38;49.83;;;47.83;;
33206;SDS011;19565;46.602;11.534;2023-04-27T08:08:07;47.08;;;45.22;;
33206;SDS011;19565;46.602;11.534;2023-04-27T08:10:35;41.67;;;39.97;;
33206;SDS011;19565;46.602;11.534;2023-04-27T08:13:03;55.72;;;53.53;;
33206;SDS011;19565;46.602;11.534;2023-04-27T08:15:37;47.95;;;46.05;;
33206;SDS011;19565;46.602;11.534;2023-04-27T08:18:05;39.35;;;37.70;;
33206;SDS011;19565;46.602;11.534;2023-04-27T08:20:34;42.70;;;41.00;;
33206;SDS011;19565;46.602;11.534;2023-04-27T08:23:02;43.28;;;41.58;;
33206;SDS011;19565;46.602;11.534;2023-04-27T08:25:30;40.00;;;38.40;;
33206;SDS011;19565;46.602;11.534;2023-04-27T08:27:58;40.03;;;38.42;;
33206;SDS011;19565;46.602;11.534;2023-04-27T08:30:26;40.28;;;38.67;;
33206;SDS011;19565;46.602;11.534;2023-04-27T08:32:54;44.20;;;42.50;;
33206;SDS011;19565;46.602;11.534;2023-04-27T08:35:22;55.28;;;53.13;;
33206;SDS011;19565;46.602;11.534;2023-04-27T08:37:52;44.80;;;43.00;;
33206;SDS011;19565;46.602;11.534;2023-04-27T08:40:20;50.67;;;48.63;;
33206;SDS011;19565;46.602;11.534;2023-04-27T08:42:53;45.60;;;43.70;;
33206;SDS011;19565;46.602;11.534;2023-04-27T08:45:22;43.78;;;41.97;;
33206;SDS011;19565;46.602;11.534;2023-04-27T08:47:52;46.20;;;44.38;;
33206;SDS011;19565;46.602;11.534;2023-04-27T08:50:21;51.97;;;49.88;;
33206;SDS011;19565;46.602;11.534;2023-04-27T08:52:49;53.58;;;51.47;;
33206;SDS011;19565;46.602;11.534;2023-04-27T08:55:19;41.20;;;39.50;;
33206;SDS011;19565;46.602;11.534;2023-04-27T08:57:55;54.33;;;51.92;;
33206;SDS011;19565;46.602;11.534;2023-04-27T09:00:26;47.90;;;45.90;;
33206;SDS011;19565;46.602;11.534;2023-04-27T09:03:03;42.83;;;41.13;;
33206;SDS011;19565;46.602;11.534;2023-04-27T09:05:32;42.70;;;41.00;;
33206;SDS011;19565;46.602;11.534;2023-04-27T09:08:01;45.47;;;43.67;;
33206;SDS011;19565;46.602;11.534;2023-04-27T09:13:20;34.85;;;33.35;;
33206;SDS011;19565;46.602;11.534;2023-04-27T09:15:49;36.03;;;34.53;;
33206;SDS011;19565;46.602;11.534;2023-04-27T09:18:18;45.05;;;43.28;;
33206;SDS011;19565;46.602;11.534;2023-04-27T09:20:48;44.42;;;42.65;;
33206;SDS011;19565;46.602;11.534;2023-04-27T09:23:24;43.33;;;41.55;;
33206;SDS011;19565;46.602;11.534;2023-04-27T09:25:54;61.40;;;57.47;;
33206;SDS011;19565;46.602;11.534;2023-04-27T09:28:23;67.35;;;61.70;;
33206;SDS011;19565;46.602;11.534;2023-04-27T09:30:52;49.35;;;47.13;;
33206;SDS011;19565;46.602;11.534;2023-04-27T09:33:22;48.55;;;45.67;;
33206;SDS011;19565;46.602;11.534;2023-04-27T09:35:50;45.60;;;43.72;;
33206;SDS011;19565;46.602;11.534;2023-04-27T09:38:19;37.63;;;35.97;;
33206;SDS011;19565;46.602;11.534;2023-04-27T09:40:48;41.85;;;40.05;;
33206;SDS011;19565;46.602;11.534;2023-04-27T09:43:19;52.25;;;50.13;;
33206;SDS011;19565;46.602;11.534;2023-04-27T09:45:47;64.78;;;62.00;;
33206;SDS011;19565;46.602;11.534;2023-04-27T09:48:16;60.15;;;57.55;;
33206;SDS011;19565;46.602;11.534;2023-04-27T09:50:44;46.88;;;44.88;;
33206;SDS011;19565;46.602;11.534;2023-04-27T09:53:13;34.80;;;33.30;;
33206;SDS011;19565;46.602;11.534;2023-04-27T09:55:46;41.42;;;39.53;;
33206;SDS011;19565;46.602;11.534;2023-04-27T10:01:25;46.78;;;44.67;;
33206;SDS011;19565;46.602;11.534;2023-04-27T10:04:07;45.92;;;44.05;;
33206;SDS011;19565;46.602;11.534;2023-04-27T10:06:52;49.50;;;47.40;;
33206;SDS011;19565;46.602;11.534;2023-04-27T10:09:27;55.42;;;52.90;;
33206;SDS011;19565;46.602;11.534;2023-04-27T10:12:12;56.30;;;53.78;;
33206;SDS011;19565;46.602;11.534;2023-04-27T10:14:52;56.33;;;54.03;;
33206;SDS011;19565;46.602;11.534;2023-04-27T10:17:27;55.40;;;53.00;;
33206;SDS011;19565;46.602;11.534;2023-04-27T10:19:57;56.20;;;53.80;;
33206;SDS011;19565;46.602;11.534;2023-04-27T10:22:38;57.60;;;55.30;;
33206;SDS011;19565;46.602;11.534;2023-04-27T10:25:15;57.22;;;54.83;;
33206;SDS011;19565;46.602;11.534;2023-04-27T10:27:48;58.22;;;55.83;;
33206;SDS011;19565;46.602;11.534;2023-04-27T10:30:20;57.30;;;54.97;;
33206;SDS011;19565;46.602;11.534;2023-04-27T10:32:49;56.13;;;53.83;;
33206;SDS011;19565;46.602;11.534;2023-04-27T10:35:19;39.67;;;38.08;;
33206;SDS011;19565;46.602;11.534;2023-04-27T10:37:47;37.00;;;35.50;;
33206;SDS011;19565;46.602;11.534;2023-04-27T10:40:17;39.17;;;37.47;;
33206;SDS011;19565;46.602;11.534;2023-04-27T10:42:45;38.38;;;36.42;;
33206;SDS011;19565;46.602;11.534;2023-04-27T10:45:26;41.95;;;40.25;;
33206;SDS011;19565;46.602;11.534;2023-04-27T10:47:57;42.92;;;41.22;;
33206;SDS011;19565;46.602;11.534;2023-04-27T10:50:27;39.60;;;38.00;;
33206;SDS011;19565;46.602;11.534;2023-04-27T10:52:58;43.13;;;41.42;;
33206;SDS011;19565;46.602;11.534;2023-04-27T10:55:27;39.58;;;37.97;;
33206;SDS011;19565;46.602;11.534;2023-04-27T10:57:57;37.03;;;35.53;;
33206;SDS011;19565;46.602;11.534;2023-04-27T11:00:27;41.28;;;39.58;;
33206;SDS011;19565;46.602;11.534;2023-04-27T11:03:08;36.47;;;34.97;;
33206;SDS011;19565;46.602;11.534;2023-04-27T11:05:44;56.38;;;54.17;;
33206;SDS011;19565;46.602;11.534;2023-04-27T11:08:14;46.83;;;44.83;;
33206;SDS011;19565;46.602;11.534;2023-04-27T11:10:43;51.17;;;49.17;;
33206;SDS011;19565;46.602;11.534;2023-04-27T11:13:16;41.38;;;39.67;;
33206;SDS011;19565;46.602;11.534;2023-04-27T11:15:47;52.50;;;50.47;;
33206;SDS011;19565;46.602;11.534;2023-04-27T11:18:16;43.88;;;42.08;;
33206;SDS011;19565;46.602;11.534;2023-04-27T11:20:46;31.77;;;30.48;;
33206;SDS011;19565;46.602;11.534;2023-04-27T11:23:22;30.40;;;29.10;;
33206;SDS011;19565;46.602;11.534;2023-04-27T11:25:51;37.38;;;35.85;;
33206;SDS011;19565;46.602;11.534;2023-04-27T11:28:20;38.55;;;36.92;;
33206;SDS011;19565;46.602;11.534;2023-04-27T11:30:55;35.63;;;34.13;;
33206;SDS011;19565;46.602;11.534;2023-04-27T11:33:23;44.47;;;42.67;;
33206;SDS011;19565;46.602;11.534;2023-04-27T11:35:52;41.10;;;39.40;;
33206;SDS011;19565;46.602;11.534;2023-04-27T11:38:21;27.00;;;25.77;;
33206;SDS011;19565;46.602;11.534;2023-04-27T11:40:59;28.65;;;27.45;;
33206;SDS011;19565;46.602;11.534;2023-04-27T11:43:31;26.50;;;25.23;;
33206;SDS011;19565;46.602;11.534;2023-04-27T11:46:03;29.88;;;28.58;;
33206;SDS011;19565;46.602;11.534;2023-04-27T11:48:34;30.45;;;29.15;;
33206;SDS011;19565;46.602;11.534;2023-04-27T11:51:03;29.60;;;28.20;;
33206;SDS011;19565;46.602;11.534;2023-04-27T11:53:32;34.08;;;32.58;;
33206;SDS011;19565;46.602;11.534;2023-04-27T11:56:01;29.95;;;28.65;;
33206;SDS011;19565;46.602;11.534;2023-04-27T11:58:32;32.30;;;31.00;;
33206;SDS011;19565;46.602;11.534;2023-04-27T12:01:02;35.38;;;33.95;;
33206;SDS011;19565;46.602;11.534;2023-04-27T12:03:31;38.95;;;37.35;;
33206;SDS011;19565;46.602;11.534;2023-04-27T12:06:00;42.85;;;41.15;;
33206;SDS011;19565;46.602;11.534;2023-04-27T12:08:47;43.80;;;42.10;;
33206;SDS011;19565;46.602;11.534;2023-04-27T12:11:15;40.47;;;38.83;;
33206;SDS011;19565;46.602;11.534;2023-04-27T12:13:43;37.63;;;36.13;;
33206;SDS011;19565;46.602;11.534;2023-04-27T12:16:13;36.13;;;34.63;;
33206;SDS011;19565;46.602;11.534;2023-04-27T12:18:41;40.17;;;38.58;;
33206;SDS011;19565;46.602;11.534;2023-04-27T12:21:09;37.50;;;35.90;;
33206;SDS011;19565;46.602;11.534;2023-04-27T12:23:38;39.72;;;38.03;;
33206;SDS011;19565;46.602;11.534;2023-04-27T12:26:06;38.30;;;36.75;;
33206;SDS011;19565;46.602;11.534;2023-04-27T12:28:34;50.75;;;48.60;;
33206;SDS011;19565;46.602;11.534;2023-04-27T12:31:02;38.45;;;36.88;;
33206;SDS011;19565;46.602;11.534;2023-04-27T12:33:33;42.72;;;40.97;;
33206;SDS011;19565;46.602;11.534;2023-04-27T12:36:01;34.50;;;33.00;;
33206;SDS011;19565;46.602;11.534;2023-04-27T12:38:29;35.55;;;34.05;;
33206;SDS011;19565;46.602;11.534;2023-04-27T12:40:58;34.97;;;33.58;;
33206;SDS011;19565;46.602;11.534;2023-04-27T12:43:28;41.28;;;39.58;;
33206;SDS011;19565;46.602;11.534;2023-04-27T12:45:56;36.13;;;34.63;;
33206;SDS011;19565;46.602;11.534;2023-04-27T12:48:24;36.72;;;35.22;;
33206;SDS011;19565;46.602;11.534;2023-04-27T12:50:53;39.55;;;37.95;;
33206;SDS011;19565;46.602;11.534;2023-04-27T12:53:23;41.95;;;40.25;;
33206;SDS011;19565;46.602;11.534;2023-04-27T12:55:51;37.60;;;36.10;;
33206;SDS011;19565;46.602;11.534;2023-04-27T12:58:19;33.08;;;31.77;;
33206;SDS011;19565;46.602;11.534;2023-04-27T13:00:47;37.95;;;36.45;;
33206;SDS011;19565;46.602;11.534;2023-04-27T13:03:15;37.78;;;36.28;;
33206;SDS011;19565;46.602;11.534;2023-04-27T13:05:43;41.38;;;39.47;;
33206;SDS011;19565;46.602;11.534;2023-04-27T13:08:12;48.90;;;47.00;;
33206;SDS011;19565;46.602;11.534;2023-04-27T13:10:40;42.53;;;40.83;;
33206;SDS011;19565;46.602;11.534;2023-04-27T13:13:08;38.53;;;37.03;;
33206;SDS011;19565;46.602;11.534;2023-04-27T13:15:36;39.15;;;37.60;;
33206;SDS011;19565;46.602;11.534;2023-04-27T13:18:05;39.63;;;38.03;;
33206;SDS011;19565;46.602;11.534;2023-04-27T13:20:33;43.08;;;41.38;;
33206;SDS011;19565;46.602;11.534;2023-04-27T13:23:01;38.70;;;37.10;;
33206;SDS011;19565;46.602;11.534;2023-04-27T13:25:32;42.40;;;40.70;;
33206;SDS011;19565;46.602;11.534;2023-04-27T13:28:00;43.85;;;42.15;;
33206;SDS011;19565;46.602;11.534;2023-04-27T13:30:29;41.97;;;40.28;;
33206;SDS011;19565;46.602;11.534;2023-04-27T13:32:57;40.67;;;39.08;;
33206;SDS011;19565;46.602;11.534;2023-04-27T13:35:45;35.75;;;34.03;;
33206;SDS011;19565;46.602;11.534;2023-04-27T13:38:13;38.95;;;37.45;;
33206;SDS011;19565;46.602;11.534;2023-04-27T13:40:42;35.15;;;33.65;;
33206;SDS011;19565;46.602;11.534;2023-04-27T13:43:10;51.80;;;49.80;;
33206;SDS011;19565;46.602;11.534;2023-04-27T13:45:38;46.35;;;44.55;;
33206;SDS011;19565;46.602;11.534;2023-04-27T13:48:07;40.45;;;38.85;;
33206;SDS011;19565;46.602;11.534;2023-04-27T13:50:35;32.20;;;30.90;;
33206;SDS011;19565;46.602;11.534;2023-04-27T13:53:04;38.35;;;36.85;;
33206;SDS011;19565;46.602;11.534;2023-04-27T13:55:32;36.00;;;34.50;;
33206;SDS011;19565;46.602;11.534;2023-04-27T13:58:01;37.00;;;35.50;;
33206;SDS011;19565;46.602;11.534;2023-04-27T14:00:30;43.22;;;40.92;;
33206;SDS011;19565;46.602;11.534;2023-04-27T14:03:00;36.72;;;35.25;;
33206;SDS011;19565;46.602;11.534;2023-04-27T14:05:30;41.20;;;39.60;;
33206;SDS011;19565;46.602;11.534;2023-04-27T14:07:58;31.23;;;29.92;;
33206;SDS011;19565;46.602;11.534;2023-04-27T14:10:26;34.30;;;32.90;;
33206;SDS011;19565;46.602;11.534;2023-04-27T14:12:55;33.83;;;32.42;;
33206;SDS011;19565;46.602;11.534;2023-04-27T14:15:25;30.33;;;29.02;;
33206;SDS011;19565;46.602;11.534;2023-04-27T14:17:54;35.17;;;33.78;;
33206;SDS011;19565;46.602;11.534;2023-04-27T14:20:22;34.97;;;33.47;;
33206;SDS011;19565;46.602;11.534;2023-04-27T14:22:50;35.00;;;33.50;;
33206;SDS011;19565;46.602;11.534;2023-04-27T14:25:18;36.47;;;34.97;;